Terminal Aerodrome Forecast
Issued by NWS

Home | Current Version | Previous Version | Graphics & Text | Print | Product List | Glossary On
Versions: 1 2 3 4 5 6 7 8 9 10 11 12 13 14 15 16 17 18 19 20 21 22 23
000
FTUS43 KBIS 251100
TAFMOT
TAF
KMOT 251120Z 2512/2612 08007KT 1/2SM FG BKN004 BKN015
      TEMPO 2514/2516 2SM BR SCT004 OVC007
     FM251600 10008KT 2SM BR OVC010
     FM251800 10012G20KT P6SM BKN035=

USA.gov is the U.S. government's official web portal to all federal, state and local government web resources and services.